Time;durP1;ratioP1;P1;durP2;ratioP2;P2;SDS_P1;SDS_P2;PMS_P1;PMS_P2;Temp;Humidity;BMP_temperature;BMP_pressure;BME280_temperature;BME280_humidity;BME280_pressure;Samples;Min_cycle;Max_cycle;Signal;HPM_P1;HPM_P2
2021/11/25 00:00:16;;;;;;;9.97;6.20;;;6.30;99.90;;;;;;5022855;28;20208;-44
2021/11/25 00:02:43;;;;;;;8.67;7.00;;;6.30;99.90;;;;;;5019833;28;20211;-45
2021/11/25 00:05:11;;;;;;;7.67;6.87;;;6.30;99.90;;;;;;5011264;28;20215;-47
2021/11/25 00:07:38;;;;;;;11.33;7.23;;;6.30;99.90;;;;;;5014255;28;20997;-50
2021/11/25 00:10:06;;;;;;;8.50;6.87;;;6.30;99.90;;;;;;5025276;28;20609;-46
2021/11/25 00:12:32;;;;;;;7.93;6.77;;;6.30;99.90;;;;;;5015684;28;20211;-46
2021/11/25 00:14:59;;;;;;;9.97;7.50;;;6.30;99.90;;;;;;5025341;28;20204;-47
2021/11/25 00:17:25;;;;;;;8.57;6.93;;;6.30;99.90;;;;;;5018304;28;20546;-46
2021/11/25 00:19:52;;;;;;;11.73;7.67;;;6.30;99.90;;;;;;5024232;28;20218;-47
2021/11/25 00:22:20;;;;;;;10.50;8.20;;;6.30;99.90;;;;;;5008300;28;20220;-49
2021/11/25 00:24:47;;;;;;;10.07;7.07;;;6.30;99.90;;;;;;5018039;28;20208;-48
2021/11/25 00:27:13;;;;;;;9.70;7.40;;;6.30;99.90;;;;;;5007092;28;20929;-46
2021/11/25 00:29:40;;;;;;;11.73;7.40;;;6.30;99.90;;;;;;5021478;28;20283;-47
2021/11/25 00:32:07;;;;;;;9.13;7.47;;;6.30;99.90;;;;;;5014635;28;20196;-46
2021/11/25 00:34:34;;;;;;;9.07;7.37;;;6.30;99.90;;;;;;5023089;28;20208;-47
2021/11/25 00:37:01;;;;;;;14.93;8.27;;;6.30;99.90;;;;;;5003372;28;20196;-50
2021/11/25 00:39:29;;;;;;;12.07;7.83;;;6.30;99.90;;;;;;5017651;28;20208;-47
2021/11/25 00:41:56;;;;;;;12.30;7.47;;;6.30;99.90;;;;;;5006002;28;20231;-50
2021/11/25 00:44:22;;;;;;;10.10;7.77;;;6.30;99.90;;;;;;5023499;28;20212;-49
2021/11/25 00:46:49;;;;;;;10.53;7.73;;;6.30;99.90;;;;;;5012210;28;20203;-50
2021/11/25 00:49:15;;;;;;;11.13;7.30;;;6.30;99.90;;;;;;5015301;28;20192;-44
2021/11/25 00:51:42;;;;;;;10.87;8.10;;;6.30;99.90;;;;;;5018065;28;20203;-44
2021/11/25 00:54:09;;;;;;;11.73;8.10;;;6.30;99.90;;;;;;5009321;28;20207;-45
2021/11/25 00:56:37;;;;;;;13.37;8.87;;;6.30;99.90;;;;;;5022453;28;20200;-47
2021/11/25 00:59:04;;;;;;;11.53;7.90;;;6.30;99.90;;;;;;5009915;28;20951;-44
2021/11/25 01:01:30;;;;;;;12.30;7.43;;;6.30;99.90;;;;;;5010866;28;20228;-44
2021/11/25 01:03:57;;;;;;;12.43;8.20;;;6.30;99.90;;;;;;5013102;28;20212;-47
2021/11/25 01:06:24;;;;;;;9.80;7.73;;;6.30;99.90;;;;;;5023625;28;20686;-48
2021/11/25 01:08:51;;;;;;;9.53;7.53;;;6.30;99.90;;;;;;5006707;28;20231;-45
2021/11/25 01:11:21;;;;;;;11.77;8.50;;;6.30;99.90;;;;;;5022666;28;20200;-48
2021/11/25 01:13:49;;;;;;;11.00;8.70;;;6.30;99.90;;;;;;5020316;28;20227;-49
2021/11/25 01:16:16;;;;;;;12.67;8.07;;;6.30;99.90;;;;;;5010830;28;21021;-44
2021/11/25 01:18:42;;;;;;;10.87;7.97;;;6.30;99.90;;;;;;5022980;28;20228;-46
2021/11/25 01:21:09;;;;;;;12.47;8.27;;;6.30;99.90;;;;;;5020391;28;20294;-45
2021/11/25 01:23:36;;;;;;;12.17;8.33;;;6.30;99.90;;;;;;5009656;28;20215;-45
2021/11/25 01:26:03;;;;;;;12.90;8.37;;;6.30;99.90;;;;;;5017954;28;20200;-46
2021/11/25 01:28:31;;;;;;;9.27;7.63;;;6.30;99.90;;;;;;5024093;28;20231;-48
2021/11/25 01:31:01;;;;;;;11.17;7.87;;;6.30;99.90;;;;;;5014760;28;20215;-45
2021/11/25 01:33:29;;;;;;;14.13;8.13;;;6.30;99.90;;;;;;5021270;28;20211;-48
2021/11/25 01:35:57;;;;;;;10.90;8.00;;;6.30;99.90;;;;;;5017573;28;20215;-51
2021/11/25 01:38:24;;;;;;;12.33;8.77;;;6.20;99.90;;;;;;5023875;28;20231;-45
2021/11/25 01:40:53;;;;;;;16.60;8.77;;;6.30;99.90;;;;;;5005498;28;20212;-45
2021/11/25 01:43:22;;;;;;;11.07;8.03;;;6.20;99.90;;;;;;5023011;28;20203;-47
2021/11/25 01:45:50;;;;;;;12.47;7.80;;;6.30;99.90;;;;;;5016435;28;20207;-45
2021/11/25 01:48:18;;;;;;;14.37;8.70;;;6.20;99.90;;;;;;5022356;28;20215;-48
2021/11/25 01:50:45;;;;;;;12.27;8.60;;;6.20;99.90;;;;;;5013283;28;20572;-46
2021/11/25 01:53:13;;;;;;;10.20;7.80;;;6.20;99.90;;;;;;5021211;28;20192;-49
2021/11/25 01:55:41;;;;;;;13.23;8.30;;;6.20;99.90;;;;;;5005057;28;20699;-47
2021/11/25 01:58:07;;;;;;;12.07;9.03;;;6.20;99.90;;;;;;5019194;28;20230;-45
2021/11/25 02:00:38;;;;;;;14.43;9.33;;;6.20;99.90;;;;;;5018229;28;20275;-46
2021/11/25 02:03:07;;;;;;;10.80;8.67;;;6.30;99.90;;;;;;5012137;28;20833;-45
2021/11/25 02:05:36;;;;;;;13.27;8.67;;;6.30;99.90;;;;;;5021846;28;20203;-45
2021/11/25 02:08:04;;;;;;;10.90;8.77;;;6.30;99.90;;;;;;5019246;28;20875;-46
2021/11/25 02:10:31;;;;;;;13.10;8.57;;;6.20;99.90;;;;;;5009109;28;20583;-45
2021/11/25 02:12:58;;;;;;;14.00;9.17;;;6.30;99.90;;;;;;5018830;28;20192;-45
2021/11/25 02:15:26;;;;;;;13.50;8.57;;;6.20;99.90;;;;;;5019561;28;20203;-46
2021/11/25 02:17:52;;;;;;;12.37;8.47;;;6.20;99.90;;;;;;5014894;28;20243;-45
2021/11/25 02:20:19;;;;;;;13.27;8.53;;;6.30;99.90;;;;;;5022311;28;20211;-50
2021/11/25 02:22:47;;;;;;;12.37;9.00;;;6.20;99.90;;;;;;5020056;28;20219;-47
2021/11/25 02:25:15;;;;;;;12.77;9.23;;;6.20;99.90;;;;;;5013197;28;20216;-46
2021/11/25 02:27:44;;;;;;;16.40;9.17;;;6.20;99.90;;;;;;5028741;28;20230;-47
2021/11/25 02:30:12;;;;;;;13.77;9.23;;;6.20;99.90;;;;;;5023719;28;20207;-46
2021/11/25 02:32:40;;;;;;;13.67;9.20;;;6.20;99.90;;;;;;5024782;28;20203;-46
2021/11/25 02:35:12;;;;;;;11.03;7.97;;;6.20;99.90;;;;;;5025805;28;20196;-45
2021/11/25 02:37:40;;;;;;;13.60;10.00;;;6.20;99.90;;;;;;5029541;28;20234;-48
2021/11/25 02:40:21;;;;;;;15.17;9.63;;;6.20;99.90;;;;;;5023705;28;20203;-48
2021/11/25 02:42:51;;;;;;;12.00;8.87;;;6.20;99.90;;;;;;5012236;28;20298;-49
2021/11/25 02:45:19;;;;;;;13.67;9.53;;;6.20;99.90;;;;;;5027988;28;20200;-48
2021/11/25 02:47:45;;;;;;;13.70;9.67;;;6.20;99.90;;;;;;5022962;28;20231;-50
2021/11/25 02:50:12;;;;;;;13.60;9.63;;;6.20;99.90;;;;;;5026957;28;20195;-50
2021/11/25 02:52:41;;;;;;;16.43;9.57;;;6.20;99.90;;;;;;5022398;28;20762;-52
2021/11/25 02:55:09;;;;;;;14.17;8.87;;;6.20;99.90;;;;;;5024589;28;20556;-46
2021/11/25 02:57:38;;;;;;;14.03;9.20;;;6.20;99.90;;;;;;5014585;28;20231;-49
2021/11/25 03:00:08;;;;;;;14.63;9.60;;;6.10;99.90;;;;;;5025141;28;20207;-46
2021/11/25 03:02:34;;;;;;;11.67;8.97;;;6.10;99.90;;;;;;5024540;28;20222;-47
2021/11/25 03:05:01;;;;;;;14.50;9.27;;;6.10;99.90;;;;;;5024609;28;20192;-48
2021/11/25 03:07:27;;;;;;;12.53;9.23;;;6.10;99.90;;;;;;5029087;28;20322;-48
2021/11/25 03:09:54;;;;;;;15.47;10.03;;;6.10;99.90;;;;;;5025398;28;20315;-51
2021/11/25 03:12:21;;;;;;;12.37;9.60;;;6.10;99.90;;;;;;5014925;28;20672;-49
2021/11/25 03:14:49;;;;;;;11.87;8.50;;;6.10;99.90;;;;;;5024173;28;20199;-47
2021/11/25 03:17:15;;;;;;;12.30;8.33;;;6.00;99.90;;;;;;5023481;28;20219;-50
2021/11/25 03:19:42;;;;;;;15.27;10.03;;;6.00;99.90;;;;;;5025666;28;20562;-49
2021/11/25 03:22:09;;;;;;;13.90;9.40;;;6.00;99.90;;;;;;5026102;28;20223;-46
2021/11/25 03:24:35;;;;;;;13.57;9.37;;;6.00;99.90;;;;;;5026764;28;20215;-47
2021/11/25 03:27:02;;;;;;;13.90;9.70;;;6.00;99.90;;;;;;5004555;28;20206;-48
2021/11/25 03:29:29;;;;;;;14.33;9.17;;;5.90;99.90;;;;;;5028225;28;20207;-46
2021/11/25 03:31:57;;;;;;;14.83;9.87;;;5.90;99.90;;;;;;5021472;28;20204;-51
2021/11/25 03:34:23;;;;;;;13.73;10.47;;;5.80;99.90;;;;;;5024754;28;20203;-46
2021/11/25 03:36:50;;;;;;;15.30;10.00;;;5.80;99.90;;;;;;5022920;28;20200;-47
2021/11/25 03:39:16;;;;;;;12.47;8.93;;;5.80;99.90;;;;;;5024042;28;20211;-46
2021/11/25 03:41:44;;;;;;;13.67;9.27;;;5.80;99.90;;;;;;5024561;28;20231;-47
2021/11/25 03:44:11;;;;;;;12.20;9.30;;;5.80;99.90;;;;;;5006385;28;20212;-46
2021/11/25 03:46:38;;;;;;;15.43;9.27;;;5.80;99.90;;;;;;5025712;28;20639;-45
2021/11/25 03:49:07;;;;;;;12.67;8.97;;;5.80;99.90;;;;;;5017253;28;20224;-47
2021/11/25 03:51:34;;;;;;;12.70;9.30;;;5.80;99.90;;;;;;5021340;28;20700;-48
2021/11/25 03:54:01;;;;;;;13.97;8.83;;;5.80;99.90;;;;;;5021211;28;20196;-45
2021/11/25 03:56:28;;;;;;;13.57;9.77;;;5.70;99.90;;;;;;5024188;28;20215;-48
2021/11/25 03:58:54;;;;;;;14.50;10.23;;;5.70;99.90;;;;;;5006862;28;20563;-46
2021/11/25 04:01:23;;;;;;;12.40;9.97;;;5.70;99.90;;;;;;5024527;28;20654;-47
2021/11/25 04:03:50;;;;;;;12.90;9.13;;;5.70;99.90;;;;;;5020941;28;20282;-48
2021/11/25 04:06:18;;;;;;;12.63;9.40;;;5.70;99.90;;;;;;5022596;28;20203;-47
2021/11/25 04:08:45;;;;;;;12.07;9.20;;;5.70;99.90;;;;;;5020742;28;20232;-51
2021/11/25 04:11:12;;;;;;;12.27;9.37;;;5.70;99.90;;;;;;5022284;28;20849;-47
2021/11/25 04:13:38;;;;;;;15.40;9.17;;;5.70;99.90;;;;;;5015753;28;20196;-49
2021/11/25 04:16:05;;;;;;;12.33;9.27;;;5.70;99.90;;;;;;5009927;28;20211;-50
2021/11/25 04:18:32;;;;;;;12.20;9.23;;;5.70;99.90;;;;;;5024431;28;20232;-49
2021/11/25 04:20:58;;;;;;;12.97;8.67;;;5.60;99.90;;;;;;5017259;28;20322;-49
2021/11/25 04:23:26;;;;;;;12.50;8.93;;;5.60;99.90;;;;;;5024184;28;20216;-52
2021/11/25 04:25:53;;;;;;;11.93;9.13;;;5.70;99.90;;;;;;5022127;28;20204;-48
2021/11/25 04:28:20;;;;;;;11.70;8.63;;;5.60;99.90;;;;;;5019600;28;20310;-47
2021/11/25 04:30:54;;;;;;;12.43;8.80;;;5.70;99.90;;;;;;5008255;28;20208;-52
2021/11/25 04:36:05;;;;;;;11.70;8.80;;;5.70;99.90;;;;;;5017193;28;20188;-47
2021/11/25 04:38:33;;;;;;;10.00;7.50;;;5.70;99.90;;;;;;5024497;28;20235;-48
2021/11/25 04:41:02;;;;;;;10.57;8.13;;;5.70;99.90;;;;;;5021116;28;20196;-45
2021/11/25 04:43:30;;;;;;;11.73;8.30;;;5.70;99.90;;;;;;5019862;28;20622;-45
2021/11/25 04:45:58;;;;;;;10.90;8.27;;;5.70;99.90;;;;;;5006579;28;20341;-52
2021/11/25 04:48:28;;;;;;;10.50;8.07;;;5.70;99.90;;;;;;5023941;28;20227;-44
2021/11/25 04:50:56;;;;;;;9.27;8.10;;;5.70;99.90;;;;;;5016531;28;20230;-47
2021/11/25 04:53:24;;;;;;;10.50;8.20;;;5.70;99.90;;;;;;5021583;28;20207;-47
2021/11/25 04:55:52;;;;;;;9.43;7.53;;;5.70;99.90;;;;;;5015159;28;20211;-45
2021/11/25 04:58:19;;;;;;;11.50;8.33;;;5.70;99.90;;;;;;5019990;28;20581;-47
2021/11/25 05:00:47;;;;;;;10.80;7.90;;;5.70;99.90;;;;;;5016462;28;20204;-45
2021/11/25 05:03:13;;;;;;;12.03;8.33;;;5.70;99.90;;;;;;5006260;28;20220;-47
2021/11/25 05:05:41;;;;;;;14.83;9.17;;;5.70;99.90;;;;;;5016942;28;20207;-47
2021/11/25 05:08:08;;;;;;;9.77;8.07;;;5.70;99.90;;;;;;5012814;28;20231;-46
2021/11/25 05:10:35;;;;;;;9.17;8.27;;;5.80;99.90;;;;;;5017987;28;20200;-48
2021/11/25 05:13:04;;;;;;;12.90;8.37;;;5.80;99.90;;;;;;5016095;28;20192;-46
2021/11/25 05:15:31;;;;;;;9.67;8.30;;;5.70;99.90;;;;;;5019039;28;20219;-45
2021/11/25 05:17:57;;;;;;;11.17;8.30;;;5.70;99.90;;;;;;5002558;28;20315;-47
2021/11/25 05:20:24;;;;;;;11.37;8.37;;;5.70;99.90;;;;;;5024180;28;20196;-47
2021/11/25 05:22:51;;;;;;;11.17;8.20;;;5.70;99.90;;;;;;5015454;28;20223;-49
2021/11/25 05:25:18;;;;;;;10.90;7.90;;;5.70;99.90;;;;;;5022783;28;20196;-44
2021/11/25 05:27:46;;;;;;;10.03;8.60;;;5.70;99.90;;;;;;5021691;28;20216;-48
2021/11/25 05:30:15;;;;;;;10.83;8.57;;;5.70;99.90;;;;;;5021258;28;20192;-49
2021/11/25 05:32:43;;;;;;;14.67;10.33;;;5.60;99.90;;;;;;5003973;28;20852;-46
2021/11/25 05:35:11;;;;;;;13.10;9.30;;;5.70;99.90;;;;;;5009141;28;20204;-48
2021/11/25 05:37:39;;;;;;;13.90;10.03;;;5.60;99.90;;;;;;5005478;28;20263;-48
2021/11/25 05:40:07;;;;;;;15.97;10.33;;;5.60;99.90;;;;;;5023254;28;20254;-46
2021/11/25 05:42:35;;;;;;;16.23;10.57;;;5.60;99.90;;;;;;5013458;28;20208;-46
2021/11/25 05:45:03;;;;;;;13.10;9.33;;;5.60;99.90;;;;;;5020567;28;20195;-48
2021/11/25 05:47:33;;;;;;;20.97;11.50;;;5.60;99.90;;;;;;5016297;28;20215;-50
2021/11/25 05:50:00;;;;;;;22.13;11.53;;;5.70;99.90;;;;;;5008345;28;20673;-46
2021/11/25 05:52:26;;;;;;;14.67;10.50;;;5.70;99.90;;;;;;5014708;28;20222;-52
2021/11/25 05:54:54;;;;;;;15.10;11.07;;;5.70;99.90;;;;;;5017940;28;20239;-46
2021/11/25 05:57:20;;;;;;;15.83;10.80;;;5.70;99.90;;;;;;5021212;28;20262;-48
2021/11/25 05:59:47;;;;;;;14.50;10.20;;;5.70;99.90;;;;;;5021555;28;20877;-47
2021/11/25 06:02:15;;;;;;;14.83;10.70;;;5.70;99.90;;;;;;5021791;28;20196;-48
2021/11/25 06:04:43;;;;;;;12.40;9.43;;;5.70;99.90;;;;;;5006254;28;20636;-44
2021/11/25 06:07:09;;;;;;;17.50;11.60;;;5.70;99.90;;;;;;5022211;28;20696;-44
2021/11/25 06:09:37;;;;;;;20.33;11.87;;;5.70;99.90;;;;;;5009667;28;20215;-46
2021/11/25 06:12:05;;;;;;;18.13;10.60;;;5.70;99.90;;;;;;5022178;28;20204;-47
2021/11/25 06:14:32;;;;;;;14.60;10.33;;;5.70;99.90;;;;;;5019045;28;20202;-44
2021/11/25 06:16:59;;;;;;;17.17;11.37;;;5.70;99.90;;;;;;5022603;28;20207;-45
2021/11/25 06:19:25;;;;;;;26.33;13.27;;;5.70;99.90;;;;;;5012462;28;20196;-49
2021/11/25 06:21:54;;;;;;;35.10;13.10;;;5.70;99.90;;;;;;5007901;28;20751;-47
2021/11/25 06:24:20;;;;;;;30.50;15.10;;;5.70;99.90;;;;;;5003646;28;20884;-45
2021/11/25 06:26:50;;;;;;;19.10;11.80;;;5.70;99.90;;;;;;5020817;28;20676;-49
2021/11/25 06:29:17;;;;;;;18.90;11.73;;;5.70;99.90;;;;;;5013912;28;20207;-46
2021/11/25 06:31:43;;;;;;;21.83;12.43;;;5.70;99.90;;;;;;5020362;28;20208;-49
2021/11/25 06:34:10;;;;;;;17.17;11.60;;;5.70;99.90;;;;;;5022217;28;20266;-48
2021/11/25 06:36:38;;;;;;;18.33;11.80;;;5.70;99.90;;;;;;5005166;28;20327;-48
2021/11/25 06:39:08;;;;;;;19.20;12.47;;;5.70;99.90;;;;;;5017762;28;20223;-50
2021/11/25 06:41:34;;;;;;;27.40;12.30;;;5.70;99.90;;;;;;5009864;28;20199;-45
2021/11/25 06:44:01;;;;;;;24.53;12.43;;;5.70;99.90;;;;;;5017581;28;20622;-43
2021/11/25 06:46:28;;;;;;;22.40;13.40;;;5.70;99.90;;;;;;5018633;28;20204;-43
2021/11/25 06:48:54;;;;;;;22.33;12.90;;;5.70;99.90;;;;;;5022145;28;20219;-46
2021/11/25 06:51:21;;;;;;;24.40;13.43;;;5.70;99.90;;;;;;5004186;28;21750;-44
2021/11/25 06:53:48;;;;;;;16.43;11.40;;;5.70;99.90;;;;;;5013826;28;20207;-43
2021/11/25 06:56:16;;;;;;;22.50;11.87;;;5.70;99.90;;;;;;5011953;28;20546;-42
2021/11/25 06:58:42;;;;;;;21.80;12.67;;;5.70;99.90;;;;;;5021260;28;20227;-44
2021/11/25 07:01:09;;;;;;;19.90;12.27;;;5.70;99.90;;;;;;5014027;28;20200;-46
2021/11/25 07:03:36;;;;;;;16.77;12.10;;;5.70;99.90;;;;;;5015286;28;20418;-49
2021/11/25 07:06:03;;;;;;;18.40;11.53;;;5.70;99.90;;;;;;5014901;28;20201;-44
2021/11/25 07:08:30;;;;;;;22.67;13.10;;;5.70;99.90;;;;;;5001142;28;20228;-44
2021/11/25 07:10:58;;;;;;;27.43;13.20;;;5.80;99.90;;;;;;5017556;28;20200;-42
2021/11/25 07:13:26;;;;;;;28.20;14.07;;;5.70;99.90;;;;;;5021518;28;20213;-43
2021/11/25 07:15:53;;;;;;;19.93;12.40;;;5.70;99.90;;;;;;5024800;28;20207;-42
2021/11/25 07:18:19;;;;;;;20.63;12.93;;;5.70;99.90;;;;;;5017878;28;20219;-43
2021/11/25 07:20:46;;;;;;;23.43;14.73;;;5.70;99.90;;;;;;5024837;28;20211;-43
2021/11/25 07:23:14;;;;;;;22.27;13.37;;;5.80;99.90;;;;;;5007579;28;20357;-43
2021/11/25 07:25:40;;;;;;;26.70;15.90;;;5.80;99.90;;;;;;5017896;28;20664;-42
2021/11/25 07:28:07;;;;;;;27.70;15.07;;;5.80;99.90;;;;;;5017778;28;20228;-43
2021/11/25 07:30:35;;;;;;;27.67;14.97;;;5.80;99.90;;;;;;5022617;28;20190;-46
2021/11/25 07:33:02;;;;;;;23.30;14.83;;;5.80;99.90;;;;;;5025816;28;20553;-42
2021/11/25 07:35:29;;;;;;;24.33;14.87;;;5.80;99.90;;;;;;5020090;28;20184;-42
2021/11/25 07:37:57;;;;;;;26.10;15.30;;;5.80;99.90;;;;;;5009416;28;20220;-42
2021/11/25 07:40:25;;;;;;;24.60;16.10;;;5.80;99.90;;;;;;5015534;28;20220;-45
2021/11/25 07:42:53;;;;;;;24.03;15.37;;;5.80;99.90;;;;;;5018987;28;20275;-42
2021/11/25 07:45:20;;;;;;;25.20;16.23;;;5.80;99.90;;;;;;5021754;28;20207;-44
2021/11/25 07:47:48;;;;;;;30.47;16.30;;;5.80;99.90;;;;;;5013569;28;20231;-43
2021/11/25 07:50:19;;;;;;;47.13;20.67;;;5.80;99.90;;;;;;5007740;28;20208;-46
2021/11/25 07:52:46;;;;;;;28.80;16.53;;;5.90;99.90;;;;;;5017295;28;20227;-45
2021/11/25 07:55:16;;;;;;;29.27;17.23;;;5.90;99.90;;;;;;5006180;28;20208;-44
2021/11/25 07:57:44;;;;;;;34.43;16.67;;;5.80;99.90;;;;;;5019077;28;20224;-45
2021/11/25 08:00:12;;;;;;;26.10;16.47;;;5.90;99.90;;;;;;5018871;28;20337;-45
2021/11/25 08:02:38;;;;;;;25.47;16.63;;;5.90;99.90;;;;;;5016678;28;20216;-43
2021/11/25 08:05:08;;;;;;;26.33;14.93;;;5.90;99.90;;;;;;5021026;28;20219;-43
2021/11/25 08:07:35;;;;;;;25.20;16.63;;;5.90;99.90;;;;;;5009487;28;20299;-44
2021/11/25 08:10:02;;;;;;;31.53;17.60;;;5.90;99.90;;;;;;4999025;28;20204;-42
2021/11/25 08:12:30;;;;;;;28.23;17.37;;;5.90;99.90;;;;;;5015948;28;20211;-43
2021/11/25 08:14:56;;;;;;;32.57;18.40;;;6.00;99.90;;;;;;5020651;28;20668;-45
2021/11/25 08:17:23;;;;;;;30.50;18.97;;;6.00;99.90;;;;;;5011204;28;20217;-45
2021/11/25 08:19:50;;;;;;;36.93;20.13;;;6.00;99.90;;;;;;5024031;28;20208;-44
2021/11/25 08:22:18;;;;;;;28.70;17.17;;;6.00;99.90;;;;;;5021062;28;20833;-42
2021/11/25 08:24:44;;;;;;;43.57;21.17;;;6.00;99.90;;;;;;5005241;28;20223;-42
2021/11/25 08:27:13;;;;;;;24.63;16.10;;;6.10;99.90;;;;;;5012518;28;20709;-46
2021/11/25 08:29:40;;;;;;;34.67;19.80;;;6.10;99.90;;;;;;5021124;28;20208;-43
2021/11/25 08:32:08;;;;;;;35.53;18.47;;;6.10;99.90;;;;;;5024214;28;20733;-42
2021/11/25 08:34:35;;;;;;;30.30;17.37;;;6.10;99.90;;;;;;5025933;28;20196;-46
2021/11/25 08:37:02;;;;;;;37.13;20.53;;;6.00;99.90;;;;;;5018912;28;20208;-44
2021/11/25 08:39:30;;;;;;;31.83;19.87;;;6.10;99.90;;;;;;5005580;28;20238;-45
2021/11/25 08:41:56;;;;;;;35.67;19.43;;;6.10;99.90;;;;;;5014927;28;20208;-45
2021/11/25 08:44:23;;;;;;;28.60;18.17;;;6.10;99.90;;;;;;5020699;28;20232;-42
2021/11/25 08:46:50;;;;;;;33.57;19.60;;;6.10;99.90;;;;;;5028225;28;20690;-40
2021/11/25 08:49:16;;;;;;;25.73;17.50;;;6.10;99.90;;;;;;5025603;28;20210;-43
2021/11/25 08:51:43;;;;;;;34.07;19.30;;;6.10;99.90;;;;;;5025820;28;20204;-43
2021/11/25 08:54:10;;;;;;;34.30;20.20;;;6.10;99.90;;;;;;5006380;28;20200;-42
2021/11/25 08:56:38;;;;;;;27.80;18.40;;;6.20;99.90;;;;;;5015418;28;20208;-43
2021/11/25 08:59:05;;;;;;;30.70;19.80;;;6.20;99.90;;;;;;5004521;28;20224;-43
2021/11/25 09:01:31;;;;;;;32.03;19.27;;;6.20;99.90;;;;;;5019629;28;20192;-43
2021/11/25 09:03:58;;;;;;;30.10;18.93;;;6.20;99.90;;;;;;5009231;28;20711;-42
2021/11/25 09:06:25;;;;;;;28.40;17.97;;;6.20;99.90;;;;;;5018002;28;20206;-43
2021/11/25 09:08:52;;;;;;;29.03;17.47;;;6.20;99.90;;;;;;5027244;28;20223;-44
2021/11/25 09:11:19;;;;;;;27.23;16.67;;;6.20;99.90;;;;;;5004365;28;20206;-43
2021/11/25 09:13:47;;;;;;;32.23;19.53;;;6.20;99.90;;;;;;5016904;28;20211;-45
2021/11/25 09:16:17;;;;;;;28.97;17.80;;;6.20;99.90;;;;;;5021490;28;20195;-42
2021/11/25 09:18:43;;;;;;;35.60;19.97;;;6.20;99.90;;;;;;5018129;28;20212;-43
2021/11/25 09:21:10;;;;;;;30.57;18.47;;;6.10;99.90;;;;;;5015904;28;20203;-43
2021/11/25 09:23:38;;;;;;;29.63;19.23;;;6.10;99.90;;;;;;5027060;28;20220;-43
2021/11/25 09:26:05;;;;;;;29.67;19.17;;;6.10;99.90;;;;;;5007350;28;20578;-42
2021/11/25 09:28:34;;;;;;;34.40;19.90;;;6.10;99.90;;;;;;5002495;28;20219;-44
2021/11/25 09:31:02;;;;;;;29.53;18.07;;;6.20;99.90;;;;;;5024673;28;20200;-44
2021/11/25 09:33:29;;;;;;;28.10;18.37;;;6.20;99.90;;;;;;5015237;28;20207;-44
2021/11/25 09:35:56;;;;;;;33.03;19.27;;;6.20;99.90;;;;;;5024466;28;20219;-42
2021/11/25 09:38:22;;;;;;;31.47;19.17;;;6.20;99.90;;;;;;5024073;28;20228;-47
2021/11/25 09:40:50;;;;;;;31.77;17.93;;;6.20;99.90;;;;;;5015188;28;20305;-43
2021/11/25 09:43:24;;;;;;;34.77;19.93;;;6.20;99.90;;;;;;5008544;28;20699;-43
2021/11/25 09:45:52;;;;;;;34.53;20.47;;;6.20;99.90;;;;;;5016746;28;20199;-43
2021/11/25 09:48:21;;;;;;;39.23;19.63;;;6.20;99.90;;;;;;5027008;28;20219;-45
2021/11/25 09:50:51;;;;;;;28.83;18.27;;;6.30;99.90;;;;;;5016962;28;20192;-45
2021/11/25 09:53:26;;;;;;;34.37;19.60;;;6.30;99.90;;;;;;5018513;28;20212;-43
2021/11/25 09:55:55;;;;;;;34.77;19.87;;;6.30;99.90;;;;;;5022286;28;20213;-43
2021/11/25 09:58:24;;;;;;;35.03;19.80;;;6.40;99.90;;;;;;5007755;28;20578;-43
2021/11/25 10:00:54;;;;;;;31.43;17.80;;;6.40;99.90;;;;;;5016070;28;20211;-43
2021/11/25 10:03:22;;;;;;;32.50;18.50;;;6.50;99.90;;;;;;5027626;28;20207;-43
2021/11/25 10:05:51;;;;;;;30.70;18.27;;;6.50;99.90;;;;;;5005983;28;20731;-43
2021/11/25 10:08:26;;;;;;;34.77;20.33;;;6.50;99.90;;;;;;5022787;28;20235;-43
2021/11/25 10:11:04;;;;;;;37.93;20.90;;;6.50;99.90;;;;;;5012816;28;20187;-42
2021/11/25 10:13:43;;;;;;;34.07;19.73;;;6.50;99.90;;;;;;5000338;28;20214;-47
2021/11/25 10:16:14;;;;;;;36.73;21.30;;;6.50;99.90;;;;;;5013220;28;20222;-43
2021/11/25 10:18:44;;;;;;;40.33;21.03;;;6.50;99.90;;;;;;5024113;28;20295;-47
2021/11/25 10:21:12;;;;;;;31.57;19.20;;;6.60;99.90;;;;;;5011815;28;20216;-43
2021/11/25 10:23:40;;;;;;;39.93;20.43;;;6.60;99.90;;;;;;5022277;28;20192;-45
2021/11/25 10:26:09;;;;;;;32.93;18.03;;;6.60;99.90;;;;;;5018752;28;20199;-49
2021/11/25 10:28:40;;;;;;;36.27;19.83;;;6.60;99.90;;;;;;5008219;28;20807;-45
2021/11/25 10:31:11;;;;;;;35.40;18.63;;;6.60;99.90;;;;;;5013004;28;20200;-45
2021/11/25 10:33:54;;;;;;;36.90;20.97;;;6.60;99.90;;;;;;5021938;28;20207;-48
2021/11/25 10:36:55;;;;;;;35.23;21.03;;;6.50;99.90;;;;;;5019546;28;20195;-44
2021/11/25 10:39:49;;;;;;;41.67;22.90;;;6.50;99.90;;;;;;5026457;28;21091;-44
2021/11/25 10:42:17;;;;;;;37.57;21.43;;;6.50;99.90;;;;;;5000019;28;20220;-44
2021/11/25 10:44:47;;;;;;;35.67;21.20;;;6.60;99.90;;;;;;5025317;28;20270;-46
2021/11/25 10:47:16;;;;;;;38.07;22.63;;;6.60;99.90;;;;;;5023158;28;20235;-44
2021/11/25 10:49:49;;;;;;;35.87;21.43;;;6.60;99.90;;;;;;5027721;28;20200;-45
2021/11/25 10:52:24;;;;;;;38.83;22.17;;;6.60;99.90;;;;;;5020497;28;20196;-44
2021/11/25 10:54:53;;;;;;;33.80;20.33;;;6.60;99.90;;;;;;5028901;28;20199;-44
2021/11/25 10:57:21;;;;;;;41.57;22.30;;;6.60;99.90;;;;;;5028720;28;20424;-45
2021/11/25 10:59:50;;;;;;;35.33;22.00;;;6.50;99.90;;;;;;5010665;28;20219;-45
2021/11/25 11:02:23;;;;;;;35.83;23.03;;;6.50;99.90;;;;;;5017558;28;20322;-46
2021/11/25 11:04:51;;;;;;;36.47;21.90;;;6.40;99.90;;;;;;5029010;28;20215;-44
2021/11/25 11:07:23;;;;;;;41.70;23.97;;;6.40;99.90;;;;;;5022336;28;20318;-45
2021/11/25 11:09:50;;;;;;;39.27;22.00;;;6.40;99.90;;;;;;5028542;28;20664;-43
2021/11/25 11:12:19;;;;;;;34.77;22.20;;;6.40;99.90;;;;;;5030998;28;20192;-43
2021/11/25 11:14:51;;;;;;;45.17;23.93;;;6.30;99.90;;;;;;5012771;28;20204;-43
2021/11/25 11:17:24;;;;;;;44.63;24.90;;;6.30;99.90;;;;;;5026758;28;20220;-43
2021/11/25 11:20:14;;;;;;;50.87;25.03;;;6.30;99.90;;;;;;5020589;28;20215;-45
2021/11/25 11:22:42;;;;;;;43.67;24.17;;;6.30;99.90;;;;;;5015706;28;20200;-43
2021/11/25 11:25:09;;;;;;;40.77;23.20;;;6.20;99.90;;;;;;5019597;28;20228;-46
2021/11/25 11:27:36;;;;;;;42.60;22.03;;;6.30;99.90;;;;;;5017969;28;20300;-46
2021/11/25 11:30:04;;;;;;;44.47;24.07;;;6.20;99.90;;;;;;5006458;28;20203;-45
2021/11/25 11:32:31;;;;;;;48.67;25.30;;;6.20;99.90;;;;;;5020012;28;20215;-44
2021/11/25 11:34:58;;;;;;;44.73;24.10;;;6.20;99.90;;;;;;5012949;28;20192;-43
2021/11/25 11:37:27;;;;;;;51.10;26.83;;;6.20;99.90;;;;;;5017731;28;20224;-42
2021/11/25 11:39:54;;;;;;;47.10;24.90;;;6.20;99.90;;;;;;5022215;28;20199;-43
2021/11/25 11:42:24;;;;;;;49.97;25.47;;;6.20;99.90;;;;;;5021082;28;20227;-45
2021/11/25 11:44:52;;;;;;;43.50;24.03;;;6.20;99.90;;;;;;5007845;28;20216;-44
2021/11/25 11:47:19;;;;;;;43.63;23.67;;;6.20;99.90;;;;;;5026006;28;20994;-43
2021/11/25 11:49:47;;;;;;;48.30;23.93;;;6.10;99.90;;;;;;5019550;28;20204;-42
2021/11/25 11:52:17;;;;;;;45.93;24.93;;;6.10;99.90;;;;;;5024615;28;20202;-44
2021/11/25 11:54:47;;;;;;;38.53;21.20;;;6.20;99.90;;;;;;5017946;28;20200;-42
2021/11/25 11:57:39;;;;;;;45.70;24.70;;;6.20;99.90;;;;;;5019665;28;20278;-42
2021/11/25 12:00:29;;;;;;;46.00;23.83;;;6.10;99.90;;;;;;5010136;28;20207;-42
2021/11/25 12:02:58;;;;;;;41.80;24.33;;;6.20;99.90;;;;;;5020079;28;20607;-43
2021/11/25 12:05:46;;;;;;;43.93;23.73;;;6.20;99.90;;;;;;5019725;28;20223;-44
2021/11/25 12:08:40;;;;;;;42.50;23.87;;;6.20;99.90;;;;;;5023477;28;20322;-44
2021/11/25 12:11:10;;;;;;;44.13;23.30;;;6.20;99.90;;;;;;5023582;28;20211;-42
2021/11/25 12:13:58;;;;;;;42.70;22.90;;;6.20;99.90;;;;;;5026653;28;20202;-44
2021/11/25 12:16:28;;;;;;;41.33;22.63;;;6.20;99.90;;;;;;5004212;28;20275;-42
2021/11/25 12:18:58;;;;;;;41.50;22.80;;;6.20;99.90;;;;;;5021220;28;20220;-42
2021/11/25 12:21:37;;;;;;;41.43;22.40;;;6.20;99.90;;;;;;5022778;28;20200;-44
2021/11/25 12:24:32;;;;;;;35.43;19.33;;;6.20;99.90;;;;;;5030131;28;20211;-42
2021/11/25 12:27:12;;;;;;;39.87;22.43;;;6.20;99.90;;;;;;5015849;28;20207;-43
2021/11/25 12:29:46;;;;;;;36.10;21.37;;;6.20;99.90;;;;;;5022074;28;20187;-42
2021/11/25 12:32:39;;;;;;;32.80;19.70;;;6.30;99.90;;;;;;5005369;28;20726;-42
2021/11/25 12:35:43;;;;;;;40.70;21.20;;;6.30;99.90;;;;;;5016732;28;20683;-44
2021/11/25 12:38:15;;;;;;;32.00;18.90;;;6.30;99.90;;;;;;5023576;28;20257;-45
2021/11/25 12:40:44;;;;;;;40.87;19.60;;;6.30;99.90;;;;;;5020414;28;20207;-42
2021/11/25 12:43:15;;;;;;;39.07;20.33;;;6.30;99.90;;;;;;5023957;28;20212;-44
2021/11/25 12:45:44;;;;;;;33.00;18.57;;;6.30;99.90;;;;;;5021008;28;20224;-43
2021/11/25 12:48:17;;;;;;;33.80;18.87;;;6.30;99.90;;;;;;5015393;28;20723;-43
2021/11/25 12:50:50;;;;;;;38.07;20.10;;;6.40;99.90;;;;;;5011517;28;20214;-42